Time,TemperatureF,DewpointF,PressureIn,WindDirection,WindDirectionDegrees,WindSpeedMPH,WindSpeedGustMPH,Humidity,HourlyPrecipIn,Conditions,Clouds,dailyrainin,SolarRadiationWatts/m^2,SoftwareType,DateUTC
2013-05-08 00:02:00,55.0,54.0,-100.00,South,184,0.0,4.0,95,0.00,,,0.00,0.000000,,2013-05-08 10:02:00,
2013-05-08 00:12:00,55.0,54.0,-100.00,South,184,0.0,4.0,95,0.00,,,0.00,0.000000,,2013-05-08 10:12:00,
2013-05-08 00:22:00,54.0,53.0,-100.00,SE,124,0.0,1.0,96,0.00,,,0.00,0.000000,,2013-05-08 10:22:00,
2013-05-08 00:42:00,54.0,53.0,-100.00,SE,124,0.0,1.0,96,0.00,,,0.00,0.000000,,2013-05-08 10:42:00,
2013-05-08 00:52:00,54.0,53.0,-100.00,SE,124,0.0,1.0,96,0.00,,,0.00,0.000000,,2013-05-08 10:52:00,
2013-05-08 01:02:00,54.0,53.0,-100.00,SE,124,0.0,1.0,96,0.00,,,0.00,0.000000,,2013-05-08 11:02:00,
2013-05-08 01:11:00,54.0,53.0,-100.00,SE,124,0.0,1.0,96,0.00,,,0.00,0.000000,,2013-05-08 11:11:00,
2013-05-08 01:42:00,55.0,54.0,-100.00,SSW,195,1.0,6.0,96,0.00,,,0.00,0.000000,,2013-05-08 11:42:00,
2013-05-08 01:52:00,55.0,54.0,-100.00,SSW,195,1.0,6.0,96,0.00,,,0.00,0.000000,,2013-05-08 11:52:00,
2013-05-08 02:01:00,55.0,54.0,-100.00,SSW,195,1.0,6.0,96,0.00,,,0.00,0.000000,,2013-05-08 12:01:00,
2013-05-08 02:11:00,55.0,54.0,-100.00,SSW,195,1.0,6.0,96,0.00,,,0.00,0.000000,,2013-05-08 12:11:00,
2013-05-08 02:21:00,55.0,54.0,-100.00,SSW,195,1.0,6.0,96,0.00,,,0.00,0.000000,,2013-05-08 12:21:00,
2013-05-08 02:42:00,56.0,54.0,-100.00,SSW,203,2.0,8.0,94,0.00,,,0.00,0.000000,,2013-05-08 12:42:00,
2013-05-08 02:52:00,56.0,54.0,-100.00,SSW,203,2.0,8.0,94,0.00,,,0.00,0.000000,,2013-05-08 12:52:00,
2013-05-08 03:01:00,56.0,54.0,-100.00,SSW,203,2.0,8.0,94,0.00,,,0.00,0.000000,,2013-05-08 13:01:00,
2013-05-08 03:11:00,56.0,54.0,-100.00,SSW,203,2.0,8.0,94,0.00,,,0.00,0.000000,,2013-05-08 13:11:00,
2013-05-08 03:21:00,56.0,54.0,-100.00,SSW,203,2.0,8.0,94,0.00,,,0.00,0.000000,,2013-05-08 13:21:00,
2013-05-08 03:42:00,56.0,55.0,-100.00,SW,219,1.0,6.0,95,0.00,,,0.00,0.000000,,2013-05-08 13:42:00,
2013-05-08 03:52:00,56.0,55.0,-100.00,SW,219,1.0,6.0,95,0.00,,,0.00,0.000000,,2013-05-08 13:52:00,
2013-05-08 04:02:00,56.0,55.0,-100.00,SW,219,1.0,6.0,95,0.00,,,0.00,0.000000,,2013-05-08 14:02:00,
2013-05-08 04:11:00,56.0,55.0,-100.00,SW,219,1.0,6.0,95,0.00,,,0.00,0.000000,,2013-05-08 14:11:00,
2013-05-08 04:21:00,56.0,55.0,-100.00,SW,219,1.0,6.0,95,0.00,,,0.00,0.000000,,2013-05-08 14:21:00,
2013-05-08 04:42:00,56.0,55.0,-100.00,SSW,203,2.0,8.0,96,0.00,,,0.00,0.000000,,2013-05-08 14:42:00,
2013-05-08 04:52:00,56.0,55.0,-100.00,SSW,203,2.0,8.0,96,0.00,,,0.00,0.000000,,2013-05-08 14:52:00,
2013-05-08 05:01:00,56.0,55.0,-100.00,SSW,203,2.0,8.0,96,0.00,,,0.00,0.000000,,2013-05-08 15:01:00,
2013-05-08 05:11:00,56.0,55.0,-100.00,SSW,203,2.0,8.0,96,0.00,,,0.00,0.000000,,2013-05-08 15:11:00,
2013-05-08 05:21:00,56.0,55.0,-100.00,SSW,203,2.0,8.0,96,0.00,,,0.00,0.000000,,2013-05-08 15:21:00,
2013-05-08 05:22:00,57.0,56.0,-100.00,SW,219,2.0,11.0,96,0.00,,,-99.99,0.000000,,2013-05-08 15:22:00,
2013-05-08 05:42:00,57.0,56.0,-100.00,SW,219,2.0,11.0,96,0.00,,,-99.99,0.000000,,2013-05-08 15:42:00,
2013-05-08 05:53:00,57.0,56.0,-100.00,SW,219,2.0,11.0,96,0.00,,,-99.99,0.000000,,2013-05-08 15:53:00,
2013-05-08 06:03:00,57.0,56.0,-100.00,SW,219,2.0,11.0,96,0.00,,,-99.99,0.000000,,2013-05-08 16:03:00,
2013-05-08 06:12:00,57.0,56.0,-100.00,SW,219,2.0,11.0,96,0.00,,,-99.99,0.000000,,2013-05-08 16:12:00,
2013-05-08 06:22:00,58.0,57.0,-100.00,SW,219,1.0,9.0,96,0.00,,,0.00,0.000000,,2013-05-08 16:22:00,
2013-05-08 06:42:00,58.0,57.0,-100.00,SW,219,1.0,9.0,96,0.00,,,0.00,0.000000,,2013-05-08 16:42:00,
2013-05-08 06:52:00,58.0,57.0,-100.00,SW,219,1.0,9.0,96,0.00,,,0.00,0.000000,,2013-05-08 16:52:00,
2013-05-08 07:02:00,58.0,57.0,-100.00,SW,219,1.0,9.0,96,0.00,,,0.00,0.000000,,2013-05-08 17:02:00,
2013-05-08 07:11:00,58.0,57.0,-100.00,SW,219,1.0,9.0,96,0.00,,,0.00,0.000000,,2013-05-08 17:11:00,
2013-05-08 07:52:00,58.0,57.0,-100.00,SW,221,1.0,6.0,96,0.00,,,-99.99,27.000000,,2013-05-08 17:52:00,
2013-05-08 08:02:00,58.0,57.0,-100.00,SW,221,1.0,6.0,96,0.00,,,-99.99,27.000000,,2013-05-08 18:02:00,
2013-05-08 08:11:00,58.0,57.0,-100.00,SW,221,1.0,6.0,96,0.00,,,-99.99,27.000000,,2013-05-08 18:11:00,
2013-05-08 08:21:00,58.0,57.0,-100.00,SW,221,1.0,6.0,96,0.00,,,-99.99,27.000000,,2013-05-08 18:21:00,
2013-05-08 08:42:00,59.0,56.0,-100.00,SSW,213,2.0,7.0,89,0.00,,,0.00,261.000000,,2013-05-08 18:42:00,
2013-05-08 08:52:00,59.0,56.0,-100.00,SSW,213,2.0,7.0,89,0.00,,,0.00,261.000000,,2013-05-08 18:52:00,
2013-05-08 09:01:00,59.0,56.0,-100.00,SSW,213,2.0,7.0,89,0.00,,,0.00,261.000000,,2013-05-08 19:01:00,
2013-05-08 09:11:00,59.0,56.0,-100.00,SSW,213,2.0,7.0,89,0.00,,,0.00,261.000000,,2013-05-08 19:11:00,
2013-05-08 09:21:00,59.0,56.0,-100.00,SSW,213,2.0,7.0,89,0.00,,,0.00,261.000000,,2013-05-08 19:21:00,
2013-05-08 09:22:00,64.0,58.0,-100.00,WSW,239,2.0,9.0,80,0.00,,,0.00,484.000000,,2013-05-08 19:22:00,
2013-05-08 09:42:00,64.0,58.0,-100.00,WSW,239,2.0,9.0,80,0.00,,,0.00,484.000000,,2013-05-08 19:42:00,
2013-05-08 09:52:00,64.0,58.0,-100.00,WSW,239,2.0,9.0,80,0.00,,,0.00,484.000000,,2013-05-08 19:52:00,
2013-05-08 10:01:00,64.0,58.0,-100.00,WSW,239,2.0,9.0,80,0.00,,,0.00,484.000000,,2013-05-08 20:01:00,
2013-05-08 10:11:00,64.0,58.0,-100.00,WSW,239,2.0,9.0,80,0.00,,,0.00,484.000000,,2013-05-08 20:11:00,
2013-05-08 10:42:00,67.0,60.0,-100.00,WSW,251,2.0,8.0,79,0.00,,,0.00,569.000000,,2013-05-08 20:42:00,
2013-05-08 10:52:00,67.0,60.0,-100.00,WSW,251,2.0,8.0,79,0.00,,,0.00,569.000000,,2013-05-08 20:52:00,
2013-05-08 11:01:00,67.0,60.0,-100.00,WSW,251,2.0,8.0,79,0.00,,,0.00,569.000000,,2013-05-08 21:01:00,
2013-05-08 11:11:00,67.0,60.0,-100.00,WSW,251,2.0,8.0,79,0.00,,,0.00,569.000000,,2013-05-08 21:11:00,
2013-05-08 11:21:00,67.0,60.0,-100.00,WSW,251,2.0,8.0,79,0.00,,,0.00,569.000000,,2013-05-08 21:21:00,
2013-05-08 11:22:00,67.0,60.0,-100.00,WSW,251,2.0,7.0,78,0.00,,,0.00,489.000000,,2013-05-08 21:22:00,
2013-05-08 11:43:00,67.0,60.0,-100.00,WSW,251,2.0,7.0,78,0.00,,,0.00,489.000000,,2013-05-08 21:43:00,
2013-05-08 11:53:00,67.0,60.0,-100.00,WSW,251,2.0,7.0,78,0.00,,,0.00,489.000000,,2013-05-08 21:53:00,
2013-05-08 12:02:00,67.0,60.0,-100.00,WSW,251,2.0,7.0,78,0.00,,,0.00,489.000000,,2013-05-08 22:02:00,
2013-05-08 12:12:00,67.0,60.0,-100.00,WSW,251,2.0,7.0,78,0.00,,,0.00,489.000000,,2013-05-08 22:12:00,
2013-05-08 12:22:00,69.0,58.0,-100.00,WSW,251,2.0,10.0,69,0.00,,,0.00,710.000000,,2013-05-08 22:22:00,
2013-05-08 12:42:00,69.0,58.0,-100.00,WSW,251,2.0,10.0,69,0.00,,,0.00,710.000000,,2013-05-08 22:42:00,
2013-05-08 12:52:00,69.0,58.0,-100.00,WSW,251,2.0,10.0,69,0.00,,,0.00,710.000000,,2013-05-08 22:52:00,
2013-05-08 13:01:00,69.0,58.0,-100.00,WSW,251,2.0,10.0,69,0.00,,,0.00,710.000000,,2013-05-08 23:01:00,
2013-05-08 13:11:00,69.0,58.0,-100.00,WSW,251,2.0,10.0,69,0.00,,,0.00,710.000000,,2013-05-08 23:11:00,
2013-05-08 13:42:00,72.0,61.0,-100.00,WSW,246,2.0,12.0,69,0.00,,,0.00,752.000000,,2013-05-08 23:42:00,
2013-05-08 13:52:00,72.0,61.0,-100.00,WSW,246,2.0,12.0,69,0.00,,,0.00,752.000000,,2013-05-08 23:52:00,
2013-05-08 14:02:00,72.0,61.0,-100.00,WSW,246,2.0,12.0,69,0.00,,,0.00,752.000000,,2013-05-09 00:02:00,
2013-05-08 14:11:00,72.0,61.0,-100.00,WSW,246,2.0,12.0,69,0.00,,,0.00,752.000000,,2013-05-09 00:11:00,
2013-05-08 14:21:00,72.0,61.0,-100.00,WSW,246,2.0,12.0,69,0.00,,,0.00,752.000000,,2013-05-09 00:21:00,
2013-05-08 14:22:00,71.0,62.0,-100.00,WSW,256,2.0,11.0,74,0.00,,,0.00,586.000000,,2013-05-09 00:22:00,
2013-05-08 14:42:00,71.0,62.0,-100.00,WSW,256,2.0,11.0,74,0.00,,,0.00,586.000000,,2013-05-09 00:42:00,
2013-05-08 14:52:00,71.0,62.0,-100.00,WSW,256,2.0,11.0,74,0.00,,,0.00,586.000000,,2013-05-09 00:52:00,
2013-05-08 15:01:00,71.0,62.0,-100.00,WSW,256,2.0,11.0,74,0.00,,,0.00,586.000000,,2013-05-09 01:01:00,
2013-05-08 15:11:00,71.0,62.0,-100.00,WSW,256,2.0,11.0,74,0.00,,,0.00,586.000000,,2013-05-09 01:11:00,
2013-05-08 15:42:00,69.0,61.0,-100.00,WSW,252,2.0,10.0,77,0.00,,,0.00,429.000000,,2013-05-09 01:42:00,
2013-05-08 15:52:00,69.0,61.0,-100.00,WSW,252,2.0,10.0,77,0.00,,,0.00,429.000000,,2013-05-09 01:52:00,
2013-05-08 16:02:00,69.0,61.0,-100.00,WSW,252,2.0,10.0,77,0.00,,,0.00,429.000000,,2013-05-09 02:02:00,
2013-05-08 16:11:00,69.0,61.0,-100.00,WSW,252,2.0,10.0,77,0.00,,,0.00,429.000000,,2013-05-09 02:11:00,
2013-05-08 16:21:00,69.0,61.0,-100.00,WSW,252,2.0,10.0,77,0.00,,,0.00,429.000000,,2013-05-09 02:21:00,
2013-05-08 17:01:00,67.0,62.0,-100.00,West,268,2.0,6.0,84,0.00,,,0.00,285.000000,,2013-05-09 03:01:00,
2013-05-08 17:11:00,67.0,62.0,-100.00,West,268,2.0,6.0,84,0.00,,,0.00,285.000000,,2013-05-09 03:11:00,
2013-05-08 17:21:00,67.0,62.0,-100.00,West,268,2.0,6.0,84,0.00,,,0.00,285.000000,,2013-05-09 03:21:00,
2013-05-08 17:22:00,66.0,61.0,-100.00,West,265,1.0,5.0,85,0.00,,,0.00,227.000000,,2013-05-09 03:22:00,
2013-05-08 17:43:00,66.0,61.0,-100.00,West,265,1.0,5.0,85,0.00,,,0.00,227.000000,,2013-05-09 03:43:00,
2013-05-08 17:53:00,66.0,61.0,-100.00,West,265,1.0,5.0,85,0.00,,,0.00,227.000000,,2013-05-09 03:53:00,
2013-05-08 18:03:00,66.0,61.0,-100.00,West,265,1.0,5.0,85,0.00,,,0.00,227.000000,,2013-05-09 04:03:00,
2013-05-08 18:12:00,66.0,61.0,-100.00,West,265,1.0,5.0,85,0.00,,,0.00,227.000000,,2013-05-09 04:12:00,
2013-05-08 18:43:00,64.0,60.0,-100.00,WSW,253,1.0,7.0,86,0.00,,,0.00,112.000000,,2013-05-09 04:43:00,
2013-05-08 18:53:00,64.0,60.0,-100.00,WSW,253,1.0,7.0,86,0.00,,,0.00,112.000000,,2013-05-09 04:53:00,
2013-05-08 19:02:00,64.0,60.0,-100.00,WSW,253,1.0,7.0,86,0.00,,,0.00,112.000000,,2013-05-09 05:02:00,
2013-05-08 19:11:00,64.0,60.0,-100.00,WSW,253,1.0,7.0,86,0.00,,,0.00,112.000000,,2013-05-09 05:11:00,
2013-05-08 19:21:00,64.0,60.0,-100.00,WSW,253,1.0,7.0,86,0.00,,,0.00,112.000000,,2013-05-09 05:21:00,
2013-05-08 19:42:00,62.0,59.0,-100.00,SW,223,1.0,4.0,90,0.00,,,0.00,21.000000,,2013-05-09 05:42:00,
2013-05-08 19:52:00,62.0,59.0,-100.00,SW,223,1.0,4.0,90,0.00,,,0.00,21.000000,,2013-05-09 05:52:00,
2013-05-08 20:01:00,62.0,59.0,-100.00,SW,223,1.0,4.0,90,0.00,,,0.00,21.000000,,2013-05-09 06:01:00,
2013-05-08 20:11:00,62.0,59.0,-100.00,SW,223,1.0,4.0,90,0.00,,,0.00,21.000000,,2013-05-09 06:11:00,
2013-05-08 20:21:00,62.0,59.0,-100.00,SW,223,1.0,4.0,90,0.00,,,0.00,21.000000,,2013-05-09 06:21:00,
2013-05-08 20:42:00,60.0,58.0,-100.00,SSW,196,1.0,4.0,93,0.00,,,0.00,0.000000,,2013-05-09 06:42:00,
2013-05-08 20:52:00,60.0,58.0,-100.00,SSW,196,1.0,4.0,93,0.00,,,0.00,0.000000,,2013-05-09 06:52:00,
2013-05-08 21:01:00,60.0,58.0,-100.00,SSW,196,1.0,4.0,93,0.00,,,0.00,0.000000,,2013-05-09 07:01:00,
2013-05-08 21:12:00,60.0,58.0,-100.00,SSW,196,1.0,4.0,93,0.00,,,0.00,0.000000,,2013-05-09 07:12:00,
2013-05-08 21:21:00,60.0,58.0,-100.00,SSW,196,1.0,4.0,93,0.00,,,0.00,0.000000,,2013-05-09 07:21:00,
2013-05-08 21:43:00,59.0,57.0,-100.00,South,184,1.0,7.0,94,0.00,,,0.00,0.000000,,2013-05-09 07:43:00,
2013-05-08 21:52:00,59.0,57.0,-100.00,South,184,1.0,7.0,94,0.00,,,0.00,0.000000,,2013-05-09 07:52:00,
2013-05-08 22:02:00,59.0,57.0,-100.00,South,184,1.0,7.0,94,0.00,,,0.00,0.000000,,2013-05-09 08:02:00,
2013-05-08 22:11:00,59.0,57.0,-100.00,South,184,1.0,7.0,94,0.00,,,0.00,0.000000,,2013-05-09 08:11:00,
2013-05-08 22:21:00,59.0,57.0,-100.00,South,184,1.0,7.0,94,0.00,,,0.00,0.000000,,2013-05-09 08:21:00,
2013-05-08 22:42:00,59.0,57.0,-100.00,South,182,2.0,7.0,94,0.00,,,0.00,0.000000,,2013-05-09 08:42:00,
2013-05-08 22:52:00,59.0,57.0,-100.00,South,182,2.0,7.0,94,0.00,,,0.00,0.000000,,2013-05-09 08:52:00,
2013-05-08 23:02:00,59.0,57.0,-100.00,South,182,2.0,7.0,94,0.00,,,0.00,0.000000,,2013-05-09 09:02:00,
2013-05-08 23:11:00,59.0,57.0,-100.00,South,182,2.0,7.0,94,0.00,,,0.00,0.000000,,2013-05-09 09:11:00,
2013-05-08 23:21:00,59.0,57.0,-100.00,South,182,2.0,7.0,94,0.00,,,0.00,0.000000,,2013-05-09 09:21:00,
2013-05-08 23:22:00,58.0,56.0,-100.00,South,182,2.0,7.0,94,0.00,,,0.00,0.000000,,2013-05-09 09:22:00,
2013-05-08 23:43:00,58.0,56.0,-100.00,South,182,2.0,7.0,94,0.00,,,0.00,0.000000,,2013-05-09 09:43:00,
2013-05-08 23:53:00,58.0,56.0,-100.00,South,182,2.0,7.0,94,0.00,,,0.00,0.000000,,2013-05-09 09:53:00,